Startpagina
METAR-TAF:

METAR-TAF

Vliegvelden :

Beiroet, Libanon

breedte: 33-49N, lengte: 035-29E, hoogte: 29 m

Actueel weer

Dit bericht is 1 uur en het 10 minuten geleden gemaakt, om 03:00 UTC
Wind 3 kt uit het oosten, variërend tussen het noordoosten en het oostzuidoosten
Temperatuur
Druk 1015 hPa
Zicht 10 km of meer
geen wolken onder 1500 m en geen cumulonimbus

METAR: OLBA 240300Z 08003KT 050V110 CAVOK Q1015

Tijdstip: 06:10 (04:10 UTC)

Verwachting

Dit bericht is 6 uur en het 10 minuten geleden gemaakt, om 22:00 UTC
Verwachting geldig van 24 om 00 UTC tot 25 om 06 UTC
Wind 8 kt uit het noordnoordoosten
Zicht 10 km of meer
geen wolken onder 1500 m en geen cumulonimbus
Wijzigt naar
van 24 om 09 UTC tot 24 om 12 UTC
Wind 10 kt uit het noordnoordwesten, variërend tussen het noordnoordwesten en het noordnoordoosten
Wijzigt naar
van 24 om 18 UTC tot 24 om 21 UTC
Wind 2 kt uit variabele richting

TAF: OLBA 232200Z 2400/2506 03008KT CAVOK BECMG 2409/2412 34010KT 330V030 BECMG 2418/2421 VRB02KT

Waarnemingen en weersverwachtingen van meer dan 4000 vliegvelden (METAR en TAF).

De beschikbare stations zijn de gele en rode punten op de kaart.

Ga met uw muis naar het station om de naam te zien.

Klik dan om waarnemingen en weersverwachtingen te zien.

kaart wijzigen: klik op de groene knoppen met een zwart kruis om in te zoomen, op de groene knop met een streepje om uit te zoomen of op de groene pijlen voor aangrenzende kaarten.


METAR-TAF: